This is the latest recevied weather packets stored in our database for station/object BV1EV-2. If no packets are shown the sender has not sent any weather packets the latest 10 day(s).
| Time | Temp. | Humidity | Pressure | Rain* | Wind** | Luminosity | Snow |
|---|---|---|---|---|---|---|---|
| 1777643868 | 28.89° C | 44% | 1013.3 hPa | - | - | - | - |
| 1777642667 | 30° C | 46% | 1013.1 hPa | - | - | - | - |
| 1777641467 | 29.44° C | 46% | 1013.2 hPa | - | - | - | - |
| 1777640267 | 27.78° C | 50% | 1013.1 hPa | - | - | - | - |
| 1777639067 | 29.44° C | 45% | 1013.1 hPa | - | - | - | - |
| 1777637867 | 29.44° C | 44% | 1013.1 hPa | - | - | - | - |
| 1777636668 | 28.89° C | 42% | 1012.9 hPa | - | - | - | - |
| 1777635468 | 29.44° C | 42% | 1012.9 hPa | - | - | - | - |
| 1777634267 | 30° C | 43% | 1012.7 hPa | - | - | - | - |
| 1777633067 | 30° C | 46% | 1012.6 hPa | - | - | - | - |
| 1777631867 | 30° C | 45% | 1012.6 hPa | - | - | - | - |
| 1777630668 | 30° C | 45% | 1012.6 hPa | - | - | - | - |
| 1777629468 | 30° C | 45% | 1012.5 hPa | - | - | - | - |
| 1777628267 | 30° C | 45% | 1012.5 hPa | - | - | - | - |
| 1777627067 | 30° C | 45% | 1012.5 hPa | - | - | - | - |
| 1777625867 | 30° C | 46% | 1012.3 hPa | - | - | - | - |
| 1777624668 | 27.78° C | 52% | 1012.2 hPa | - | - | - | - |
| 1777623467 | 28.33° C | 51% | 1012.2 hPa | - | - | - | - |
| 1777622268 | 28.33° C | 51% | 1012.6 hPa | - | - | - | - |
| 1777621068 | 27.78° C | 51% | 1012.8 hPa | - | - | - | - |
| 1777619868 | 27.78° C | 52% | 1012.8 hPa | - | - | - | - |
| 1777618667 | 27.22° C | 52% | 1012.9 hPa | - | - | - | - |
| 1777617468 | 27.78° C | 52% | 1013 hPa | - | - | - | - |
| 1777616267 | 27.78° C | 52% | 1013.2 hPa | - | - | - | - |
| 1777615067 | 27.22° C | 53% | 1013.3 hPa | - | - | - | - |
* Rain since midnight (hover to see other rain measurements)
** Current wind speed in m/s (hover to see current wind gust speed)